Time;durP1;ratioP1;P1;durP2;ratioP2;P2;SDS_P1;SDS_P2;PMS_P1;PMS_P2;Temp;Humidity;BMP_temperature;BMP_pressure;BME280_temperature;BME280_humidity;BME280_pressure;Samples;Min_cycle;Max_cycle;Signal;HPM_P1;HPM_P2
2023/06/04 00:00:26;;;;;;;7.90;3.70;;;10.50;99.90;;;;;;5062464;28;20229;-89
2023/06/04 00:02:53;;;;;;;9.77;3.90;;;10.40;99.90;;;;;;5060221;28;20292;-92
2023/06/04 00:05:22;;;;;;;8.80;4.10;;;10.50;99.90;;;;;;5059443;28;20259;-87
2023/06/04 00:07:49;;;;;;;8.53;3.77;;;10.40;99.90;;;;;;5059319;28;20221;-89
2023/06/04 00:10:16;;;;;;;9.03;3.80;;;10.40;99.90;;;;;;5077722;28;20207;-90
2023/06/04 00:12:43;;;;;;;7.50;4.63;;;10.30;99.90;;;;;;5060244;28;20298;-89
2023/06/04 00:15:10;;;;;;;8.33;4.43;;;10.30;99.90;;;;;;5060228;28;20392;-91
2023/06/04 00:17:37;;;;;;;8.73;4.33;;;10.30;99.90;;;;;;5077273;28;20621;-90
2023/06/04 00:20:04;;;;;;;11.20;4.87;;;10.30;99.90;;;;;;5060556;28;20689;-88
2023/06/04 00:22:31;;;;;;;9.80;4.43;;;10.20;99.90;;;;;;5043649;28;20230;-90
2023/06/04 00:24:58;;;;;;;9.80;4.73;;;10.20;99.90;;;;;;5080426;28;20276;-91
2023/06/04 00:27:25;;;;;;;8.80;4.37;;;10.20;99.90;;;;;;5060776;28;20284;-92
2023/06/04 00:29:52;;;;;;;8.60;4.60;;;10.20;99.90;;;;;;5041762;28;20225;-90
2023/06/04 00:32:19;;;;;;;9.63;4.37;;;10.10;99.90;;;;;;5059926;28;20190;-86
2023/06/04 00:34:55;;;;;;;10.53;4.40;;;10.10;99.90;;;;;;5075112;28;20206;-89
2023/06/04 00:37:22;;;;;;;7.50;3.70;;;10.00;99.90;;;;;;5074847;28;20740;-79
2023/06/04 00:39:49;;;;;;;8.40;4.27;;;10.00;99.90;;;;;;5040448;28;20263;-79
2023/06/04 00:42:17;;;;;;;7.17;3.90;;;10.00;99.90;;;;;;5056989;28;20194;-79
2023/06/04 00:44:45;;;;;;;8.00;3.97;;;9.90;99.90;;;;;;5056773;28;20222;-82
2023/06/04 00:47:12;;;;;;;9.33;3.90;;;9.90;99.90;;;;;;5057195;28;20187;-80
2023/06/04 00:49:39;;;;;;;8.10;3.77;;;9.80;99.90;;;;;;5056731;28;20690;-81
2023/06/04 00:52:09;;;;;;;7.70;4.20;;;9.80;99.90;;;;;;5056880;28;20187;-81
2023/06/04 00:54:37;;;;;;;6.67;3.93;;;9.70;99.90;;;;;;5056639;28;20238;-81
2023/06/04 00:57:06;;;;;;;9.77;4.33;;;9.70;99.90;;;;;;5073228;28;20245;-80
2023/06/04 00:59:36;;;;;;;8.07;4.10;;;9.70;99.90;;;;;;5056787;28;20303;-81
2023/06/04 01:02:19;;;;;;;7.83;4.30;;;9.60;99.90;;;;;;5075143;28;20183;-81
2023/06/04 01:04:59;;;;;;;8.03;4.27;;;9.50;99.90;;;;;;5056763;28;20220;-80
2023/06/04 01:07:28;;;;;;;10.47;4.00;;;9.50;99.90;;;;;;5074558;28;20223;-79
2023/06/04 01:09:55;;;;;;;8.67;4.23;;;9.50;99.90;;;;;;5039914;28;20698;-80
2023/06/04 01:12:23;;;;;;;8.13;3.77;;;9.40;99.90;;;;;;5039994;28;20205;-80
2023/06/04 01:14:50;;;;;;;6.37;4.10;;;9.50;99.90;;;;;;5074235;28;20229;-80
2023/06/04 01:17:37;;;;;;;6.07;3.67;;;9.40;99.90;;;;;;5039894;28;20225;-80
2023/06/04 01:20:22;;;;;;;6.43;3.77;;;9.30;99.90;;;;;;5056550;28;20225;-80
2023/06/04 01:23:01;;;;;;;8.87;3.57;;;9.30;99.90;;;;;;5056613;28;20181;-80
2023/06/04 01:25:35;;;;;;;7.30;3.73;;;9.30;99.90;;;;;;5057050;28;20726;-79
2023/06/04 01:28:04;;;;;;;7.20;3.73;;;9.30;99.90;;;;;;5056469;28;20247;-80
2023/06/04 01:30:34;;;;;;;9.53;3.50;;;9.20;99.90;;;;;;5056280;28;20705;-80
2023/06/04 01:33:01;;;;;;;8.67;4.30;;;9.30;99.90;;;;;;5056926;28;20190;-81
2023/06/04 01:35:31;;;;;;;7.00;3.50;;;9.20;99.90;;;;;;5072610;28;20638;-81
2023/06/04 01:37:58;;;;;;;4.70;3.30;;;9.30;99.90;;;;;;5074077;28;20554;-81
2023/06/04 01:40:26;;;;;;;6.17;3.50;;;9.30;99.90;;;;;;5056115;28;20644;-81
2023/06/04 01:42:54;;;;;;;6.03;3.57;;;9.20;99.90;;;;;;5039288;28;20190;-80
2023/06/04 01:45:22;;;;;;;6.27;3.30;;;9.20;99.90;;;;;;5056147;28;20218;-80
2023/06/04 01:47:49;;;;;;;6.30;2.90;;;9.20;99.90;;;;;;5055924;28;20289;-80
2023/06/04 01:50:17;;;;;;;5.77;3.10;;;9.20;99.90;;;;;;5055469;28;20586;-80
2023/06/04 01:52:45;;;;;;;5.67;3.20;;;9.20;99.90;;;;;;5056237;28;20274;-80
2023/06/04 01:55:14;;;;;;;6.27;2.90;;;9.30;99.90;;;;;;5056010;28;20735;-79
2023/06/04 01:57:45;;;;;;;6.23;2.90;;;9.30;99.90;;;;;;5038755;28;20226;-80
2023/06/04 02:00:14;;;;;;;7.17;2.83;;;9.20;99.90;;;;;;5039321;28;20229;-78
2023/06/04 02:02:43;;;;;;;5.83;3.00;;;9.20;99.90;;;;;;5055444;28;20225;-79
2023/06/04 02:05:10;;;;;;;4.47;2.73;;;9.30;99.90;;;;;;5038797;28;20214;-78
2023/06/04 02:07:39;;;;;;;6.90;3.00;;;9.20;99.90;;;;;;5072304;28;20201;-78
2023/06/04 02:10:08;;;;;;;6.53;3.10;;;9.20;99.90;;;;;;5073184;28;20214;-79
2023/06/04 02:12:37;;;;;;;4.93;2.80;;;9.30;99.90;;;;;;5072070;28;20233;-79
2023/06/04 02:15:05;;;;;;;8.27;3.27;;;9.30;99.90;;;;;;5038422;28;20280;-79
2023/06/04 02:17:32;;;;;;;5.77;2.97;;;9.30;99.90;;;;;;5055132;28;20860;-79
2023/06/04 02:20:00;;;;;;;6.57;2.90;;;9.30;99.90;;;;;;5038487;28;20689;-79
2023/06/04 02:22:27;;;;;;;4.90;3.00;;;9.30;99.90;;;;;;5054985;28;20240;-79
2023/06/04 02:24:54;;;;;;;5.57;2.93;;;9.30;99.90;;;;;;5055097;28;20250;-79
2023/06/04 02:27:21;;;;;;;7.40;2.80;;;9.20;99.90;;;;;;5055264;28;20553;-79
2023/06/04 02:29:49;;;;;;;5.63;3.20;;;9.20;99.90;;;;;;5055083;28;20224;-78
2023/06/04 02:32:16;;;;;;;6.47;2.90;;;9.20;99.90;;;;;;5055055;28;20205;-78
2023/06/04 02:34:44;;;;;;;4.37;2.47;;;9.20;99.90;;;;;;5071522;28;20304;-78
2023/06/04 02:37:11;;;;;;;6.10;2.90;;;9.20;99.90;;;;;;5054834;28;20226;-78
2023/06/04 02:39:38;;;;;;;5.50;3.03;;;9.30;99.90;;;;;;5038284;28;20218;-79
2023/06/04 02:42:05;;;;;;;4.43;2.90;;;9.30;99.90;;;;;;5054838;28;20194;-79
2023/06/04 02:44:35;;;;;;;6.57;3.13;;;9.30;99.90;;;;;;5038174;28;20222;-80
2023/06/04 02:47:02;;;;;;;7.60;2.53;;;9.30;99.90;;;;;;5054818;28;20297;-79
2023/06/04 02:49:29;;;;;;;5.33;2.77;;;9.20;99.90;;;;;;5055181;28;20210;-79
2023/06/04 02:51:56;;;;;;;4.63;2.80;;;9.20;99.90;;;;;;5055182;28;20243;-78
2023/06/04 02:54:22;;;;;;;6.07;3.00;;;9.30;99.90;;;;;;5054969;28;20575;-79
2023/06/04 02:56:49;;;;;;;5.27;2.70;;;9.20;99.90;;;;;;5054743;28;20218;-78
2023/06/04 02:59:16;;;;;;;5.00;2.60;;;9.20;99.90;;;;;;5054905;28;20222;-79
2023/06/04 03:01:43;;;;;;;6.60;2.90;;;9.30;99.90;;;;;;5054370;28;20198;-79
2023/06/04 03:04:14;;;;;;;4.67;2.90;;;9.30;99.90;;;;;;5037851;28;20204;-79
2023/06/04 03:06:46;;;;;;;6.47;3.30;;;9.30;99.90;;;;;;5038194;28;20598;-79
2023/06/04 03:09:13;;;;;;;4.20;2.73;;;9.40;99.90;;;;;;5054730;28;20213;-80
2023/06/04 03:11:40;;;;;;;5.83;2.60;;;9.30;99.90;;;;;;5054465;28;20257;-80
2023/06/04 03:14:07;;;;;;;8.20;3.00;;;9.40;99.90;;;;;;5072309;28;20233;-80
2023/06/04 03:16:34;;;;;;;4.70;2.90;;;9.30;99.90;;;;;;5054477;28;20221;-80
2023/06/04 03:19:01;;;;;;;5.70;2.97;;;9.30;99.90;;;;;;5054318;28;20244;-80
2023/06/04 03:21:29;;;;;;;4.33;2.70;;;9.30;99.90;;;;;;5054608;28;20637;-79
2023/06/04 03:23:56;;;;;;;5.73;2.80;;;9.30;99.90;;;;;;5054637;28;20263;-79
2023/06/04 03:26:23;;;;;;;5.87;3.00;;;9.30;99.90;;;;;;5054631;28;20198;-79
2023/06/04 03:28:50;;;;;;;6.53;3.30;;;9.30;99.90;;;;;;5054433;28;20235;-80
2023/06/04 03:31:23;;;;;;;5.97;3.07;;;9.30;99.90;;;;;;5072282;28;20569;-79
2023/06/04 03:33:49;;;;;;;4.50;2.97;;;9.30;99.90;;;;;;5072805;28;20198;-78
2023/06/04 03:36:16;;;;;;;4.87;2.87;;;9.40;99.90;;;;;;5054264;28;20287;-81
2023/06/04 03:38:45;;;;;;;5.17;3.00;;;9.50;99.90;;;;;;5054422;28;20323;-80
2023/06/04 03:41:13;;;;;;;4.33;2.80;;;9.40;99.90;;;;;;5071281;28;20309;-80
2023/06/04 03:43:40;;;;;;;5.93;2.97;;;9.50;99.90;;;;;;5054502;28;20217;-80
2023/06/04 03:46:07;;;;;;;9.83;3.70;;;9.40;99.90;;;;;;5072494;28;20567;-79
2023/06/04 03:48:34;;;;;;;5.00;2.70;;;9.50;99.90;;;;;;5054427;28;20186;-79
2023/06/04 03:51:01;;;;;;;7.10;2.90;;;9.50;99.90;;;;;;5054599;28;20253;-80
2023/06/04 03:53:28;;;;;;;5.80;2.80;;;9.60;99.90;;;;;;5054517;28;20271;-80
2023/06/04 03:55:55;;;;;;;4.50;3.00;;;9.70;99.90;;;;;;5054695;28;20210;-80
2023/06/04 03:58:22;;;;;;;6.00;2.97;;;9.80;99.90;;;;;;5054306;28;20308;-79
2023/06/04 04:00:49;;;;;;;4.23;2.80;;;9.80;99.90;;;;;;5054103;28;20248;-78
2023/06/04 04:03:17;;;;;;;6.03;2.87;;;9.90;99.90;;;;;;5072384;28;20566;-81
2023/06/04 04:05:44;;;;;;;3.87;2.47;;;9.90;99.90;;;;;;5054146;28;20221;-81
2023/06/04 04:08:11;;;;;;;4.70;2.30;;;10.00;99.90;;;;;;5053891;28;20214;-80
2023/06/04 04:10:38;;;;;;;5.17;2.60;;;10.00;99.90;;;;;;5037234;28;20634;-81
2023/06/04 04:13:05;;;;;;;5.07;2.23;;;10.10;99.90;;;;;;5073506;28;20197;-81
2023/06/04 04:15:33;;;;;;;4.97;2.33;;;10.30;99.90;;;;;;5057623;28;20237;-81
2023/06/04 04:18:01;;;;;;;6.60;2.40;;;10.40;99.90;;;;;;5057614;28;20280;-81
2023/06/04 04:20:28;;;;;;;6.43;2.57;;;10.50;99.90;;;;;;5057199;28;20222;-81
2023/06/04 04:22:55;;;;;;;5.13;2.47;;;10.60;99.90;;;;;;5057291;28;20205;-81
2023/06/04 04:25:23;;;;;;;6.17;2.67;;;10.70;99.90;;;;;;5040716;28;20242;-81
2023/06/04 04:27:50;;;;;;;4.07;2.70;;;10.70;99.90;;;;;;5040935;28;20251;-80
2023/06/04 04:30:17;;;;;;;5.67;2.43;;;10.80;99.90;;;;;;5057365;28;20245;-82
2023/06/04 04:32:50;;;;;;;3.90;2.33;;;10.80;99.90;;;;;;5057184;28;20539;-81
2023/06/04 04:35:18;;;;;;;4.10;2.63;;;10.80;99.90;;;;;;5057205;28;20221;-81
2023/06/04 04:37:45;;;;;;;4.50;2.40;;;10.90;99.90;;;;;;5074892;28;20255;-80
2023/06/04 04:40:13;;;;;;;4.43;2.23;;;10.90;99.90;;;;;;5056809;28;20217;-80
2023/06/04 04:42:41;;;;;;;5.00;2.43;;;11.00;99.90;;;;;;5056890;28;20681;-81
2023/06/04 04:45:09;;;;;;;5.63;2.50;;;11.10;99.90;;;;;;5040033;28;20249;-81
2023/06/04 04:47:36;;;;;;;4.37;2.37;;;11.10;99.90;;;;;;5056973;28;20198;-81
2023/06/04 04:50:04;;;;;;;4.37;2.40;;;11.20;99.90;;;;;;5056593;28;20245;-81
2023/06/04 04:52:31;;;;;;;6.03;2.57;;;11.30;99.90;;;;;;5056922;28;20190;-80
2023/06/04 04:54:58;;;;;;;3.87;2.40;;;11.40;99.90;;;;;;5057081;28;20206;-79
2023/06/04 04:57:25;;;;;;;3.63;2.33;;;11.40;99.90;;;;;;5075099;28;20213;-79
2023/06/04 04:59:52;;;;;;;4.13;2.67;;;11.50;99.90;;;;;;5040160;28;20236;-80
2023/06/04 05:02:19;;;;;;;6.80;2.40;;;11.50;99.90;;;;;;5074732;28;20661;-79
2023/06/04 05:04:46;;;;;;;4.00;2.43;;;11.80;99.90;;;;;;5040699;28;20206;-80
2023/06/04 05:07:13;;;;;;;5.40;2.77;;;11.80;99.90;;;;;;5040395;28;20280;-80
2023/06/04 05:09:40;;;;;;;3.80;2.20;;;11.90;99.90;;;;;;5056754;28;20257;-79
2023/06/04 05:12:08;;;;;;;5.60;2.40;;;12.00;99.90;;;;;;5057046;28;20186;-79
2023/06/04 05:14:36;;;;;;;6.17;2.43;;;12.10;99.90;;;;;;5056928;28;20322;-79
2023/06/04 05:17:03;;;;;;;5.13;2.47;;;12.10;99.90;;;;;;5056575;28;20313;-80
2023/06/04 05:19:32;;;;;;;4.40;2.20;;;12.20;99.90;;;;;;5056456;28;20218;-80
2023/06/04 05:22:00;;;;;;;4.27;2.33;;;12.30;99.90;;;;;;5056840;28;20217;-80
2023/06/04 05:24:28;;;;;;;5.10;2.43;;;12.40;99.90;;;;;;5039915;28;20319;-80
2023/06/04 05:26:56;;;;;;;3.87;2.30;;;12.50;99.90;;;;;;5074266;28;20186;-81
2023/06/04 05:29:23;;;;;;;3.80;2.33;;;12.60;99.90;;;;;;5055776;28;20222;-79
2023/06/04 05:31:50;;;;;;;4.47;2.50;;;12.60;99.90;;;;;;5056227;28;20198;-80
2023/06/04 05:34:18;;;;;;;6.70;2.23;;;12.80;99.90;;;;;;5056639;28;20225;-80
2023/06/04 05:36:45;;;;;;;3.97;2.30;;;12.90;99.90;;;;;;5056294;28;20236;-79
2023/06/04 05:39:12;;;;;;;5.27;2.17;;;12.90;99.90;;;;;;5056463;28;20218;-79
2023/06/04 05:41:40;;;;;;;3.77;2.20;;;13.00;99.90;;;;;;5056223;28;20286;-79
2023/06/04 05:44:07;;;;;;;5.50;2.00;;;13.20;99.90;;;;;;5056302;28;20190;-78
2023/06/04 05:46:34;;;;;;;6.23;2.00;;;13.20;99.90;;;;;;5056215;28;20194;-79
2023/06/04 05:49:01;;;;;;;3.87;2.20;;;13.30;99.90;;;;;;5056021;28;20616;-80
2023/06/04 05:51:28;;;;;;;5.13;2.20;;;13.50;99.90;;;;;;5055995;28;20190;-80
2023/06/04 05:53:55;;;;;;;4.30;2.20;;;13.60;99.90;;;;;;5073853;28;20191;-81
2023/06/04 05:56:22;;;;;;;3.37;1.87;;;13.70;99.90;;;;;;5056112;28;20224;-80
2023/06/04 05:58:52;;;;;;;3.40;2.13;;;13.90;99.90;;;;;;5073609;28;20309;-80
2023/06/04 06:01:19;;;;;;;3.17;2.00;;;14.00;99.90;;;;;;5056219;28;20225;-80
2023/06/04 06:03:46;;;;;;;3.77;1.97;;;14.10;99.90;;;;;;5073884;28;20563;-80
2023/06/04 06:06:14;;;;;;;5.00;2.00;;;14.10;99.90;;;;;;5055545;28;20218;-80
2023/06/04 06:08:41;;;;;;;3.37;1.87;;;14.30;99.90;;;;;;5038924;28;20190;-80
2023/06/04 06:11:08;;;;;;;3.00;1.60;;;14.50;99.90;;;;;;5055465;28;20222;-80
2023/06/04 06:13:37;;;;;;;3.37;1.80;;;14.50;99.90;;;;;;5055420;28;20293;-79
2023/06/04 06:16:04;;;;;;;2.93;1.50;;;14.60;99.90;;;;;;5038750;28;20275;-80
2023/06/04 06:18:32;;;;;;;13.70;2.13;;;14.60;99.90;;;;;;5038845;28;20310;-79
2023/06/04 06:20:59;;;;;;;2.90;1.53;;;14.70;99.90;;;;;;5055213;28;20210;-79
2023/06/04 06:23:26;;;;;;;3.83;1.90;;;14.70;99.90;;;;;;5073024;28;20211;-80
2023/06/04 06:25:53;;;;;;;2.63;1.47;;;14.70;99.90;;;;;;5055624;28;20594;-79
2023/06/04 06:28:20;;;;;;;2.87;1.57;;;14.90;99.90;;;;;;5054691;28;20239;-80
2023/06/04 06:30:47;;;;;;;2.37;1.30;;;15.00;99.90;;;;;;5054682;28;20314;-80
2023/06/04 06:33:14;;;;;;;11.20;2.70;;;15.10;99.90;;;;;;5055116;28;20198;-79
2023/06/04 06:35:43;;;;;;;2.87;1.20;;;15.20;99.90;;;;;;5054172;28;20218;-79
2023/06/04 06:38:10;;;;;;;1.50;1.20;;;15.20;99.90;;;;;;5038029;28;20310;-80
2023/06/04 06:40:36;;;;;;;2.00;1.30;;;15.20;99.90;;;;;;5040249;28;20210;-80
2023/06/04 06:43:03;;;;;;;2.00;1.10;;;15.30;99.90;;;;;;5054739;28;20292;-80
2023/06/04 06:45:30;;;;;;;2.60;1.00;;;15.50;99.90;;;;;;5054719;28;20221;-80
2023/06/04 06:47:57;;;;;;;2.20;1.10;;;15.60;99.90;;;;;;5054743;28;20193;-80
2023/06/04 06:50:24;;;;;;;3.50;1.30;;;15.80;99.90;;;;;;5054529;28;20304;-80
2023/06/04 06:52:51;;;;;;;4.13;1.37;;;15.80;99.90;;;;;;5072837;28;20193;-79
2023/06/04 06:55:18;;;;;;;3.97;1.10;;;15.80;99.60;;;;;;5054384;28;20218;-80
2023/06/04 06:57:45;;;;;;;4.03;1.20;;;16.00;99.90;;;;;;5054726;28;20210;-79
2023/06/04 07:00:13;;;;;;;2.60;1.20;;;16.10;99.90;;;;;;5054554;28;20225;-79
2023/06/04 07:02:40;;;;;;;1.80;0.90;;;16.30;99.20;;;;;;5072408;28;20190;-80
2023/06/04 07:05:07;;;;;;;4.33;0.90;;;16.20;98.20;;;;;;5054403;28;20221;-80
2023/06/04 07:07:34;;;;;;;1.20;0.87;;;16.40;98.20;;;;;;5054709;28;20562;-80
2023/06/04 07:10:03;;;;;;;1.57;0.97;;;16.40;98.00;;;;;;5038504;28;20246;-80
2023/06/04 07:12:30;;;;;;;2.53;1.00;;;16.50;96.70;;;;;;5072719;28;20183;-81
2023/06/04 07:14:57;;;;;;;2.90;1.03;;;16.60;97.00;;;;;;5054565;28;20296;-80
2023/06/04 07:17:24;;;;;;;1.23;0.90;;;16.70;95.90;;;;;;5054548;28;20214;-79
2023/06/04 07:19:51;;;;;;;1.93;0.73;;;16.80;96.30;;;;;;5054598;28;20216;-80
2023/06/04 07:22:18;;;;;;;2.17;0.80;;;16.90;94.80;;;;;;5054465;28;20206;-80
2023/06/04 07:24:45;;;;;;;2.00;0.93;;;16.90;95.90;;;;;;5054154;28;20268;-79
2023/06/04 07:27:13;;;;;;;2.67;0.80;;;17.00;95.60;;;;;;5071073;28;20194;-79
2023/06/04 07:29:43;;;;;;;2.40;0.70;;;17.10;95.20;;;;;;5070957;28;20305;-80
2023/06/04 07:32:10;;;;;;;1.83;0.80;;;17.10;93.70;;;;;;5054577;28;20680;-79
2023/06/04 07:34:40;;;;;;;1.67;0.70;;;17.20;93.10;;;;;;5071872;28;20205;-80
2023/06/04 07:37:09;;;;;;;1.53;0.70;;;17.30;93.60;;;;;;5037565;28;20244;-80
2023/06/04 07:39:36;;;;;;;3.33;0.70;;;17.40;90.80;;;;;;5054369;28;20224;-81
2023/06/04 07:42:05;;;;;;;4.53;0.90;;;17.50;90.40;;;;;;5053997;28;20300;-77
2023/06/04 07:44:33;;;;;;;2.33;1.00;;;17.60;90.20;;;;;;5070685;28;20256;-81
2023/06/04 07:47:00;;;;;;;1.37;0.80;;;17.40;90.30;;;;;;5054254;28;20197;-79
2023/06/04 07:49:27;;;;;;;3.27;1.23;;;17.50;90.70;;;;;;5057861;28;20309;-80
2023/06/04 07:51:54;;;;;;;2.20;0.90;;;17.60;90.00;;;;;;5041614;28;20602;-80
2023/06/04 07:54:21;;;;;;;1.37;0.80;;;17.50;88.00;;;;;;5041929;28;20602;-80
2023/06/04 07:56:48;;;;;;;1.50;0.97;;;17.40;89.70;;;;;;5041849;28;20202;-78
2023/06/04 07:59:15;;;;;;;5.37;1.00;;;17.60;90.40;;;;;;5057933;28;20229;-79
2023/06/04 08:01:42;;;;;;;2.40;1.17;;;17.70;87.70;;;;;;5041895;28;20194;-80
2023/06/04 08:04:10;;;;;;;2.17;1.00;;;17.50;87.80;;;;;;5058633;28;20213;-79
2023/06/04 08:06:39;;;;;;;3.47;1.03;;;17.70;90.20;;;;;;5074616;28;20194;-80
2023/06/04 08:09:09;;;;;;;3.07;0.93;;;17.80;88.00;;;;;;5075467;28;20714;-81
2023/06/04 08:11:36;;;;;;;1.97;0.90;;;17.70;88.60;;;;;;5057832;28;20204;-80
2023/06/04 08:14:03;;;;;;;1.40;0.90;;;17.60;86.50;;;;;;5040914;28;20229;-80
2023/06/04 08:16:31;;;;;;;1.93;1.10;;;17.70;86.30;;;;;;5057636;28;20190;-80
2023/06/04 08:18:59;;;;;;;1.00;0.90;;;17.60;86.00;;;;;;5073847;28;20218;-78
2023/06/04 08:21:28;;;;;;;2.87;1.10;;;17.90;85.40;;;;;;5057331;28;20204;-79
2023/06/04 08:23:55;;;;;;;2.70;1.00;;;18.70;84.50;;;;;;5057370;28;20225;-79
2023/06/04 08:26:23;;;;;;;2.20;1.00;;;19.00;80.80;;;;;;5074276;28;20190;-79
2023/06/04 08:28:50;;;;;;;1.17;0.83;;;19.40;79.00;;;;;;5057296;28;20563;-79
2023/06/04 08:31:18;;;;;;;1.53;0.93;;;20.10;79.30;;;;;;5040842;28;20225;-76
2023/06/04 08:33:46;;;;;;;1.97;0.93;;;20.90;77.80;;;;;;5040913;28;20190;-78
2023/06/04 08:36:14;;;;;;;1.52;0.95;;;21.40;73.60;;;;;;5075070;28;20218;-79
2023/06/04 08:38:41;;;;;;;1.73;0.93;;;21.80;70.30;;;;;;5057080;28;20232;-79
2023/06/04 08:41:40;;;;;;;2.63;0.90;;;22.40;68.90;;;;;;5056811;28;20257;-80
2023/06/04 08:44:09;;;;;;;1.58;0.88;;;22.90;66.30;;;;;;5056800;28;20205;-80
2023/06/04 08:46:40;;;;;;;3.10;1.08;;;23.20;65.10;;;;;;5057185;28;20603;-82
2023/06/04 08:49:08;;;;;;;2.45;0.90;;;23.60;63.90;;;;;;5056633;28;20654;-83
2023/06/04 08:51:37;;;;;;;1.50;0.90;;;23.90;65.00;;;;;;5056805;28;20270;-80
2023/06/04 08:54:05;;;;;;;2.83;1.10;;;24.30;60.40;;;;;;5040002;28;20716;-80
2023/06/04 08:56:35;;;;;;;2.35;0.90;;;24.10;58.40;;;;;;5040321;28;20214;-82
2023/06/04 08:59:06;;;;;;;2.83;1.00;;;24.10;59.50;;;;;;5055746;28;20305;-81
2023/06/04 09:01:34;;;;;;;1.83;0.85;;;24.30;57.90;;;;;;5056588;28;20193;-82
2023/06/04 09:04:03;;;;;;;1.67;0.93;;;24.30;57.30;;;;;;5074315;28;20221;-80
2023/06/04 09:06:33;;;;;;;2.00;0.75;;;24.20;56.30;;;;;;5073311;28;20201;-80
2023/06/04 09:09:05;;;;;;;2.85;1.00;;;23.20;58.30;;;;;;5056791;28;20634;-83
2023/06/04 09:11:51;;;;;;;1.15;0.75;;;22.80;60.00;;;;;;5040427;28;20684;-81
2023/06/04 09:14:18;;;;;;;2.22;0.90;;;23.00;60.60;;;;;;5056170;28;20577;-83
2023/06/04 09:16:54;;;;;;;1.88;1.00;;;23.40;61.10;;;;;;5039836;28;20198;-83
2023/06/04 09:19:22;;;;;;;6.38;1.00;;;23.80;58.50;;;;;;5056138;28;20324;-83
2023/06/04 09:21:54;;;;;;;2.33;1.00;;;24.00;58.10;;;;;;5056222;28;20209;-82
2023/06/04 09:24:23;;;;;;;3.65;0.90;;;24.50;56.60;;;;;;5056081;28;20218;-74
2023/06/04 09:26:51;;;;;;;1.83;0.98;;;24.40;57.90;;;;;;5072793;28;20221;-74
2023/06/04 09:29:18;;;;;;;5.82;0.90;;;24.50;56.10;;;;;;5056014;28;20241;-73
2023/06/04 09:31:47;;;;;;;4.10;0.80;;;24.40;55.30;;;;;;5073829;28;20648;-73
2023/06/04 09:34:14;;;;;;;1.98;0.90;;;24.50;55.00;;;;;;5056026;28;20213;-74
2023/06/04 09:36:42;;;;;;;1.52;0.70;;;24.60;54.50;;;;;;5055794;28;20238;-73
2023/06/04 09:39:16;;;;;;;2.65;0.60;;;24.70;54.00;;;;;;5073526;28;20203;-74
2023/06/04 09:41:43;;;;;;;1.42;0.73;;;24.80;54.00;;;;;;5073799;28;20672;-75
2023/06/04 09:44:11;;;;;;;1.35;0.70;;;24.80;54.90;;;;;;5072101;28;20230;-74
2023/06/04 09:46:39;;;;;;;1.08;0.80;;;25.00;53.90;;;;;;5055489;28;20202;-75
2023/06/04 09:49:06;;;;;;;1.20;0.70;;;25.20;53.50;;;;;;5073391;28;20194;-75
2023/06/04 09:51:33;;;;;;;2.53;0.70;;;25.30;54.50;;;;;;5055816;28;20190;-74
2023/06/04 09:54:03;;;;;;;1.35;0.80;;;25.40;51.30;;;;;;5055486;28;20194;-76
2023/06/04 09:56:40;;;;;;;1.38;0.70;;;25.70;52.90;;;;;;5055529;28;20198;-76
2023/06/04 09:59:09;;;;;;;1.38;0.90;;;25.70;51.60;;;;;;5055389;28;20291;-76
2023/06/04 10:01:40;;;;;;;1.23;0.70;;;25.60;50.00;;;;;;5073383;28;20646;-75
2023/06/04 10:04:11;;;;;;;1.30;0.80;;;25.80;50.40;;;;;;5072368;28;20194;-75
2023/06/04 10:06:40;;;;;;;2.00;0.73;;;26.20;50.30;;;;;;5055278;28;20187;-75
2023/06/04 10:09:08;;;;;;;3.13;0.80;;;26.70;51.20;;;;;;5056034;28;20396;-75
2023/06/04 10:11:53;;;;;;;1.70;0.73;;;27.00;50.80;;;;;;5054605;28;20205;-76
2023/06/04 10:14:25;;;;;;;1.17;0.68;;;27.50;51.50;;;;;;5057258;28;20561;-79
2023/06/04 10:16:53;;;;;;;1.75;0.65;;;27.50;48.30;;;;;;5058114;28;20243;-76
2023/06/04 10:19:20;;;;;;;4.00;0.80;;;26.80;48.60;;;;;;5057236;28;20218;-76
2023/06/04 10:21:48;;;;;;;1.48;0.77;;;27.10;49.50;;;;;;5075418;28;20218;-78
2023/06/04 10:24:15;;;;;;;3.25;0.77;;;26.90;47.80;;;;;;5040571;28;20305;-77
2023/06/04 10:26:43;;;;;;;1.50;0.90;;;27.00;48.90;;;;;;5054907;28;20420;-77
2023/06/04 10:29:11;;;;;;;1.40;0.80;;;27.60;49.10;;;;;;5055157;28;20263;-78
2023/06/04 10:31:38;;;;;;;2.95;0.90;;;28.10;47.50;;;;;;5055019;28;20194;-79
2023/06/04 10:34:05;;;;;;;1.75;0.90;;;27.80;46.30;;;;;;5055133;28;20230;-78
2023/06/04 10:36:43;;;;;;;2.40;0.80;;;28.00;46.20;;;;;;5055025;28;20855;-80
2023/06/04 10:39:10;;;;;;;1.55;0.70;;;27.90;45.30;;;;;;5054982;28;20261;-78
2023/06/04 10:41:37;;;;;;;1.63;0.70;;;27.60;45.40;;;;;;5073132;28;20559;-76
2023/06/04 10:44:04;;;;;;;1.30;0.70;;;28.00;45.60;;;;;;5054284;28;20539;-78
2023/06/04 10:46:40;;;;;;;1.83;0.70;;;28.30;45.10;;;;;;5054984;28;20331;-77
2023/06/04 10:49:11;;;;;;;0.90;0.60;;;28.40;45.20;;;;;;5054895;28;20182;-81
2023/06/04 10:51:38;;;;;;;2.65;0.85;;;28.60;44.40;;;;;;5054582;28;20244;-81
2023/06/04 10:54:05;;;;;;;1.88;0.70;;;28.30;43.60;;;;;;5054307;28;20198;-77
2023/06/04 10:56:34;;;;;;;2.05;0.65;;;27.20;43.70;;;;;;5072579;28;20312;-77
2023/06/04 10:59:14;;;;;;;0.85;0.52;;;26.80;45.30;;;;;;5037878;28;20213;-76
2023/06/04 11:01:41;;;;;;;1.52;0.60;;;27.50;45.00;;;;;;5072469;28;20705;-79
2023/06/04 11:04:24;;;;;;;2.35;0.77;;;27.80;42.20;;;;;;5054538;28;20252;-77
2023/06/04 11:07:08;;;;;;;1.77;0.60;;;28.50;44.30;;;;;;5072293;28;20174;-75
2023/06/04 11:09:37;;;;;;;1.93;0.60;;;28.60;42.50;;;;;;5072144;28;20439;-79
2023/06/04 11:12:05;;;;;;;1.90;0.70;;;28.90;42.60;;;;;;5037828;28;20680;-80
2023/06/04 11:14:32;;;;;;;3.47;0.80;;;29.30;42.10;;;;;;5054196;28;20276;-77
2023/06/04 11:17:12;;;;;;;0.73;0.60;;;29.70;41.90;;;;;;5072956;28;20198;-77
2023/06/04 11:19:40;;;;;;;3.55;0.70;;;30.00;41.00;;;;;;5054476;28;20254;-75
2023/06/04 11:22:11;;;;;;;1.33;0.50;;;30.60;41.90;;;;;;5075251;28;20607;-80
2023/06/04 11:24:38;;;;;;;2.85;1.50;;;30.70;39.70;;;;;;5059384;28;20214;-77
2023/06/04 11:27:05;;;;;;;0.45;0.40;;;30.60;49.40;;;;;;5076586;28;20186;-77
2023/06/04 11:29:53;;;;;;;1.55;0.75;;;30.50;45.40;;;;;;5058456;28;20580;-79
2023/06/04 11:32:24;;;;;;;1.55;0.70;;;30.30;43.90;;;;;;5076681;28;20188;-78
2023/06/04 11:34:51;;;;;;;1.35;0.60;;;29.80;46.00;;;;;;5058273;28;20214;-76
2023/06/04 11:37:18;;;;;;;1.40;0.50;;;29.90;46.00;;;;;;5058574;28;20307;-74
2023/06/04 11:39:46;;;;;;;4.22;0.93;;;29.80;45.40;;;;;;5058045;28;20648;-76
2023/06/04 11:42:13;;;;;;;0.82;0.60;;;30.00;44.80;;;;;;5075952;28;20201;-75
2023/06/04 11:44:44;;;;;;;1.80;0.60;;;30.10;45.30;;;;;;5075946;28;20218;-76
2023/06/04 11:47:12;;;;;;;1.33;0.70;;;29.90;49.40;;;;;;5058128;28;20650;-74
2023/06/04 11:49:39;;;;;;;1.90;0.63;;;30.10;47.50;;;;;;5057762;28;20279;-74
2023/06/04 11:52:07;;;;;;;0.75;0.57;;;30.40;47.20;;;;;;5076119;28;20191;-75
2023/06/04 11:54:38;;;;;;;0.90;0.50;;;30.30;46.70;;;;;;5041085;28;20264;-76
2023/06/04 11:57:05;;;;;;;1.08;0.70;;;30.70;45.60;;;;;;5057708;28;20205;-75
2023/06/04 11:59:32;;;;;;;2.00;0.55;;;30.50;50.00;;;;;;5076008;28;20355;-78
2023/06/04 12:02:00;;;;;;;1.83;0.70;;;30.50;48.20;;;;;;5058126;28;20182;-77
2023/06/04 12:04:30;;;;;;;0.88;0.47;;;30.70;47.40;;;;;;5058015;28;20308;-76
2023/06/04 12:07:01;;;;;;;2.47;0.80;;;30.90;45.90;;;;;;5057808;28;20195;-79
2023/06/04 12:09:32;;;;;;;2.45;0.80;;;31.10;46.80;;;;;;5075445;28;20765;-75
2023/06/04 12:11:59;;;;;;;1.42;0.63;;;31.00;44.10;;;;;;5075656;28;20254;-78
2023/06/04 12:14:27;;;;;;;0.90;0.50;;;31.10;47.40;;;;;;5057388;28;20233;-76
2023/06/04 12:17:00;;;;;;;1.00;0.60;;;31.10;44.80;;;;;;5075264;28;20182;-79
2023/06/04 12:19:28;;;;;;;1.33;0.65;;;30.80;44.10;;;;;;5057379;28;20241;-77
2023/06/04 12:22:02;;;;;;;0.80;0.68;;;31.00;46.10;;;;;;5039785;28;20988;-76
2023/06/04 12:24:30;;;;;;;1.45;0.65;;;31.30;47.30;;;;;;5075447;28;20221;-77
2023/06/04 12:27:09;;;;;;;1.25;0.70;;;31.40;46.40;;;;;;5075457;28;20364;-78
2023/06/04 12:29:36;;;;;;;1.83;1.52;;;31.30;45.10;;;;;;5041176;28;20229;-77
2023/06/04 12:32:04;;;;;;;1.45;0.70;;;31.20;42.00;;;;;;5075589;28;20599;-77
2023/06/04 12:34:32;;;;;;;1.90;0.60;;;31.00;43.90;;;;;;5039847;28;20244;-76
2023/06/04 12:36:58;;;;;;;4.50;0.70;;;30.70;41.40;;;;;;5057461;28;20197;-77
2023/06/04 12:39:25;;;;;;;3.72;0.70;;;30.60;41.90;;;;;;5057119;28;20265;-77
2023/06/04 12:41:52;;;;;;;1.63;0.90;;;30.60;44.60;;;;;;5074878;28;20236;-77
2023/06/04 12:44:20;;;;;;;0.73;0.60;;;31.00;45.30;;;;;;5056942;28;20226;-77
2023/06/04 12:46:47;;;;;;;2.50;0.80;;;31.20;43.60;;;;;;5057547;28;21119;-78
2023/06/04 12:49:15;;;;;;;2.70;0.75;;;31.40;45.00;;;;;;5074671;28;20217;-78
2023/06/04 12:51:42;;;;;;;3.28;1.10;;;31.70;43.70;;;;;;5056999;28;20200;-78
2023/06/04 12:54:09;;;;;;;1.85;1.10;;;31.80;44.50;;;;;;5056921;28;20230;-77
2023/06/04 12:56:36;;;;;;;1.50;0.82;;;31.90;42.60;;;;;;5056798;28;20206;-77